Time;durP1;ratioP1;P1;durP2;ratioP2;P2;SDS_P1;SDS_P2;PMS_P1;PMS_P2;Temp;Humidity;BMP_temperature;BMP_pressure;BME280_temperature;BME280_humidity;BME280_pressure;Samples;Min_cycle;Max_cycle;Signal;HPM_P1;HPM_P2
2022/06/24 00:01:25;;;;;;;3.38;3.08;;;20.70;98.30;;;;;;5049856;28;20041;-30
2022/06/24 00:03:51;;;;;;;4.60;3.70;;;20.60;98.30;;;;;;5031980;28;20079;-27
2022/06/24 00:06:17;;;;;;;5.43;3.80;;;20.60;99.00;;;;;;5042236;28;20060;-27
2022/06/24 00:09:13;;;;;;;4.13;3.63;;;20.50;99.90;;;;;;5051637;28;20439;-27
2022/06/24 00:11:39;;;;;;;8.95;3.58;;;20.40;99.90;;;;;;5016426;28;20063;-27
2022/06/24 00:14:08;;;;;;;4.30;3.90;;;20.30;99.90;;;;;;5052144;28;20548;-27
2022/06/24 00:17:02;;;;;;;4.18;3.67;;;20.30;99.90;;;;;;5051972;28;20041;-27
2022/06/24 00:19:28;;;;;;;;;;;20.20;99.90;;;;;;5023321;28;20056;-27
2022/06/24 00:22:02;;;;;;;3.88;3.58;;;20.10;99.90;;;;;;5049273;28;19917;-26
2022/06/24 00:24:30;;;;;;;4.22;3.80;;;20.10;99.90;;;;;;5051916;28;20393;-26
2022/06/24 00:26:56;;;;;;;4.20;3.80;;;20.10;99.90;;;;;;5037983;28;20102;-27
2022/06/24 00:29:24;;;;;;;4.03;3.70;;;20.10;99.90;;;;;;5034069;28;20041;-27
2022/06/24 00:32:01;;;;;;;3.95;3.53;;;20.00;99.90;;;;;;5051556;28;20033;-26
2022/06/24 00:34:27;;;;;;;4.68;4.28;;;20.00;99.90;;;;;;5042552;28;20099;-26
2022/06/24 00:36:53;;;;;;;3.92;3.63;;;19.90;99.90;;;;;;5038775;28;20037;-26
2022/06/24 00:39:19;;;;;;;4.40;4.00;;;19.80;99.90;;;;;;5049806;28;20100;-26
2022/06/24 00:41:50;;;;;;;4.28;3.97;;;19.80;99.90;;;;;;5051431;28;20113;-26
2022/06/24 00:44:19;;;;;;;4.20;3.90;;;19.80;99.90;;;;;;5031215;28;20061;-26
2022/06/24 00:46:47;;;;;;;4.30;3.90;;;19.70;99.90;;;;;;5018668;28;20056;-26
2022/06/24 00:49:16;;;;;;;4.80;4.40;;;19.70;99.90;;;;;;5051251;28;20447;-26
2022/06/24 00:51:42;;;;;;;4.38;4.05;;;19.70;99.90;;;;;;5051356;28;20455;-26
2022/06/24 00:54:13;;;;;;;4.50;4.20;;;19.60;99.90;;;;;;5051278;28;20205;-26
2022/06/24 00:56:40;;;;;;;4.75;4.30;;;19.60;99.90;;;;;;5034004;28;20042;-26
2022/06/24 00:59:09;;;;;;;4.30;4.00;;;19.50;99.90;;;;;;5046531;28;20056;-26
2022/06/24 01:01:36;;;;;;;4.32;3.92;;;19.40;99.90;;;;;;5049385;28;20048;-26
2022/06/24 01:04:04;;;;;;;4.43;4.10;;;19.40;99.90;;;;;;5051123;28;20039;-26
2022/06/24 01:06:31;;;;;;;4.55;4.13;;;19.40;99.90;;;;;;5027287;28;20045;-26
2022/06/24 01:08:57;;;;;;;4.43;4.13;;;19.40;99.90;;;;;;5028485;28;20037;-26
2022/06/24 01:11:24;;;;;;;4.40;4.10;;;19.30;99.90;;;;;;5051308;28;20062;-26
2022/06/24 01:13:50;;;;;;;4.60;4.20;;;19.20;99.90;;;;;;5051621;28;20424;-26
2022/06/24 01:16:16;;;;;;;4.20;3.88;;;19.20;99.90;;;;;;5044232;28;20132;-26
2022/06/24 01:18:42;;;;;;;4.40;3.97;;;19.20;99.90;;;;;;5050798;28;20115;-26
2022/06/24 01:21:07;;;;;;;6.25;4.20;;;19.10;99.90;;;;;;5033105;28;20037;-26
2022/06/24 01:23:33;;;;;;;4.55;4.25;;;19.10;99.90;;;;;;5050944;28;20029;-26
2022/06/24 01:25:59;;;;;;;6.18;3.90;;;19.00;99.90;;;;;;5043744;28;20041;-29
2022/06/24 01:28:24;;;;;;;4.45;4.05;;;19.00;99.90;;;;;;5046506;28;20033;-30
2022/06/24 01:30:50;;;;;;;4.72;4.10;;;19.00;99.90;;;;;;5045468;28;20036;-29
2022/06/24 01:33:16;;;;;;;4.63;4.32;;;18.90;99.90;;;;;;5047194;28;20127;-30
2022/06/24 01:35:42;;;;;;;4.97;4.47;;;18.90;99.90;;;;;;5041191;28;20048;-29
2022/06/24 01:38:07;;;;;;;4.18;3.85;;;18.90;99.90;;;;;;5043840;28;20125;-29
2022/06/24 01:40:33;;;;;;;4.68;4.28;;;18.80;99.90;;;;;;5045902;28;20115;-29
2022/06/24 01:43:01;;;;;;;4.55;4.05;;;18.80;99.90;;;;;;5039487;28;20036;-29
2022/06/24 01:45:27;;;;;;;4.97;4.57;;;18.80;99.90;;;;;;5021764;28;20124;-29
2022/06/24 01:47:53;;;;;;;4.63;4.22;;;18.70;99.90;;;;;;5046042;28;20141;-29
2022/06/24 01:50:18;;;;;;;4.57;4.22;;;18.70;99.90;;;;;;5043027;28;20132;-30
2022/06/24 01:52:44;;;;;;;4.38;4.00;;;18.60;99.90;;;;;;5024621;28;20127;-30
2022/06/24 01:55:10;;;;;;;4.30;3.92;;;18.60;99.90;;;;;;5041590;28;20071;-30
2022/06/24 01:57:36;;;;;;;4.80;4.40;;;18.60;99.90;;;;;;5045918;28;20041;-30
2022/06/24 02:00:01;;;;;;;4.60;4.30;;;18.60;99.90;;;;;;5040101;28;20037;-30
2022/06/24 02:02:28;;;;;;;5.70;4.70;;;18.60;99.90;;;;;;5046185;28;20120;-30
2022/06/24 02:04:54;;;;;;;4.95;4.55;;;18.60;99.90;;;;;;5048152;28;20111;-30
2022/06/24 02:07:21;;;;;;;4.68;4.28;;;18.60;99.90;;;;;;5042263;28;20048;-29
2022/06/24 02:15:15;;;;;;;5.38;4.88;;;18.60;99.90;;;;;;5044521;28;20037;-29
2022/06/24 02:17:41;;;;;;;4.72;4.38;;;18.60;99.90;;;;;;5048550;28;20120;-30
2022/06/24 02:20:07;;;;;;;4.80;4.50;;;18.70;99.90;;;;;;5043841;28;20030;-30
2022/06/24 02:22:33;;;;;;;4.75;4.38;;;18.70;99.90;;;;;;5048391;28;20075;-30
2022/06/24 02:24:59;;;;;;;5.63;4.60;;;18.70;99.90;;;;;;5043898;28;20459;-30
2022/06/24 02:27:25;;;;;;;4.53;4.20;;;18.80;99.90;;;;;;5050700;28;20041;-30
2022/06/24 02:29:51;;;;;;;4.90;4.53;;;18.80;99.90;;;;;;5040149;28;20041;-30
2022/06/24 02:32:17;;;;;;;5.05;4.57;;;18.90;99.90;;;;;;5045059;28;20452;-30
2022/06/24 02:34:43;;;;;;;4.97;4.60;;;19.00;99.90;;;;;;5047098;28;20477;-30
2022/06/24 02:37:08;;;;;;;4.75;4.45;;;19.00;99.90;;;;;;5052344;28;20048;-30
2022/06/24 02:39:34;;;;;;;5.10;4.60;;;19.00;99.90;;;;;;5041028;28;20029;-30
2022/06/24 02:42:00;;;;;;;5.13;4.60;;;19.00;99.90;;;;;;5048624;28;20121;-30
2022/06/24 02:44:25;;;;;;;4.78;4.38;;;19.00;99.90;;;;;;5050483;28;20553;-30
2022/06/24 02:46:51;;;;;;;5.65;5.18;;;19.10;99.90;;;;;;5045277;28;20036;-30
2022/06/24 02:49:17;;;;;;;5.88;4.88;;;19.00;99.90;;;;;;5031809;28;20120;-27
2022/06/24 02:51:42;;;;;;;4.85;4.45;;;19.10;99.90;;;;;;5054411;28;20098;-27
2022/06/24 02:54:08;;;;;;;4.68;4.28;;;19.10;99.90;;;;;;5049275;28;20040;-27
2022/06/24 02:56:34;;;;;;;4.75;4.35;;;19.10;99.90;;;;;;5035879;28;20056;-27
2022/06/24 02:58:59;;;;;;;5.45;5.05;;;19.20;99.90;;;;;;5053797;28;20464;-27
2022/06/24 03:01:25;;;;;;;5.20;4.70;;;19.30;99.90;;;;;;5053642;28;20085;-27
2022/06/24 03:03:51;;;;;;;4.72;4.32;;;19.30;99.90;;;;;;5053849;28;20036;-28
2022/06/24 03:06:17;;;;;;;4.82;4.43;;;19.30;99.90;;;;;;5053824;28;20041;-27
2022/06/24 03:08:43;;;;;;;5.68;4.55;;;19.30;99.90;;;;;;5053653;28;20103;-27
2022/06/24 03:11:08;;;;;;;5.25;4.45;;;19.30;99.90;;;;;;5052899;28;20051;-28
2022/06/24 03:13:34;;;;;;;4.90;4.40;;;19.30;99.90;;;;;;5053747;28;20277;-28
2022/06/24 03:16:01;;;;;;;5.00;4.50;;;19.40;99.90;;;;;;5053314;28;20048;-27
2022/06/24 03:18:26;;;;;;;5.90;4.97;;;19.40;99.90;;;;;;5053133;28;20102;-27
2022/06/24 03:20:52;;;;;;;4.85;4.35;;;19.40;99.90;;;;;;5053335;28;20036;-28
2022/06/24 03:23:18;;;;;;;5.38;4.43;;;19.40;99.90;;;;;;5052822;28;20411;-28
2022/06/24 03:25:45;;;;;;;4.70;4.38;;;19.40;99.90;;;;;;5053123;28;20419;-28
2022/06/24 03:28:11;;;;;;;5.10;4.70;;;19.40;99.90;;;;;;5053285;28;20135;-28
2022/06/24 03:30:37;;;;;;;5.15;4.75;;;19.40;99.90;;;;;;5053418;28;20115;-28
2022/06/24 03:33:03;;;;;;;5.15;4.57;;;19.40;99.90;;;;;;5053318;28;20049;-27
2022/06/24 03:35:29;;;;;;;5.05;4.63;;;19.30;99.90;;;;;;5053144;28;20041;-27
2022/06/24 03:37:55;;;;;;;4.90;4.50;;;19.30;99.90;;;;;;5053371;28;20373;-27
2022/06/24 03:40:21;;;;;;;5.95;5.07;;;19.20;99.90;;;;;;5052965;28;20044;-27
2022/06/24 03:42:46;;;;;;;4.95;4.55;;;19.20;99.90;;;;;;5053144;28;20480;-27
2022/06/24 03:45:12;;;;;;;5.63;5.22;;;19.20;99.90;;;;;;5053220;28;20037;-27
2022/06/24 03:47:38;;;;;;;5.63;5.13;;;19.20;99.90;;;;;;5034895;28;20041;-28
2022/06/24 03:50:04;;;;;;;5.90;4.20;;;19.10;99.90;;;;;;5052771;28;20036;-27
2022/06/24 03:52:30;;;;;;;5.20;4.80;;;19.20;99.90;;;;;;5052792;28;20039;-28
2022/06/24 03:54:55;;;;;;;5.38;4.75;;;19.20;99.90;;;;;;5052681;28;20496;-27
2022/06/24 03:57:21;;;;;;;6.03;5.53;;;19.20;99.90;;;;;;5052620;28;20108;-28
2022/06/24 03:59:47;;;;;;;5.35;4.85;;;19.20;99.90;;;;;;5053096;28;20064;-27
2022/06/24 04:02:13;;;;;;;4.68;4.38;;;19.20;99.90;;;;;;5052024;28;20047;-28
2022/06/24 04:04:38;;;;;;;6.95;4.78;;;19.20;99.90;;;;;;5052372;28;20045;-27
2022/06/24 04:07:04;;;;;;;4.70;4.40;;;19.30;99.90;;;;;;5052421;28;20051;-27
2022/06/24 04:09:30;;;;;;;5.32;4.80;;;19.30;99.90;;;;;;5052260;28;20535;-27
2022/06/24 04:11:56;;;;;;;5.15;4.70;;;19.40;99.90;;;;;;5051881;28;20144;-27
2022/06/24 04:17:06;;;;;;;6.50;5.05;;;19.40;99.90;;;;;;5031660;28;20132;-27
2022/06/24 04:19:35;;;;;;;5.65;4.65;;;19.50;99.90;;;;;;5031520;28;20120;-27
2022/06/24 04:22:01;;;;;;;6.20;5.10;;;19.50;99.90;;;;;;5050141;28;20045;-27
2022/06/24 04:24:26;;;;;;;6.95;5.65;;;19.50;99.90;;;;;;5052058;28;20040;-27
2022/06/24 04:26:52;;;;;;;5.95;5.35;;;19.60;99.90;;;;;;5051763;28;20424;-27
2022/06/24 04:29:18;;;;;;;6.10;5.60;;;19.60;99.90;;;;;;5051772;28;20041;-26
2022/06/24 04:31:43;;;;;;;5.80;5.35;;;19.70;99.90;;;;;;5051704;28;20481;-26
2022/06/24 04:34:09;;;;;;;6.78;6.20;;;19.80;99.90;;;;;;5051536;28;20045;-27
2022/06/24 04:36:37;;;;;;;7.93;7.28;;;19.90;99.90;;;;;;5051412;28;20416;-27
2022/06/24 04:39:02;;;;;;;9.80;8.88;;;20.00;99.90;;;;;;5051133;28;20191;-27
2022/06/24 04:41:29;;;;;;;10.80;9.80;;;20.10;99.90;;;;;;5051234;28;20072;-27
2022/06/24 04:43:54;;;;;;;14.18;11.52;;;20.30;99.90;;;;;;5031992;28;20127;-27
2022/06/24 04:46:21;;;;;;;11.95;10.82;;;20.40;99.90;;;;;;5050617;28;20069;-27
2022/06/24 04:48:46;;;;;;;12.48;11.20;;;20.50;99.90;;;;;;5051531;28;20123;-27
2022/06/24 04:51:12;;;;;;;11.77;10.57;;;20.60;99.90;;;;;;5051859;28;20068;-27
2022/06/24 04:53:38;;;;;;;12.02;10.85;;;20.80;99.90;;;;;;5051729;28;20049;-27
2022/06/24 04:56:04;;;;;;;10.18;9.18;;;20.80;99.90;;;;;;5051709;28;20540;-27
2022/06/24 04:58:30;;;;;;;9.00;7.82;;;21.00;99.90;;;;;;5050943;28;20465;-27
2022/06/24 05:00:56;;;;;;;8.32;5.78;;;21.00;99.90;;;;;;5050986;28;20095;-27
2022/06/24 05:03:21;;;;;;;5.72;5.22;;;21.00;99.90;;;;;;5033477;28;20205;-27
2022/06/24 05:05:47;;;;;;;5.53;4.97;;;21.10;99.90;;;;;;5028135;28;20036;-27
2022/06/24 05:08:13;;;;;;;5.72;5.22;;;21.00;99.90;;;;;;5051208;28;20041;-26
2022/06/24 05:10:41;;;;;;;6.28;5.07;;;21.10;99.90;;;;;;5051421;28;20045;-27
2022/06/24 05:13:08;;;;;;;5.80;4.57;;;21.00;99.90;;;;;;5051574;28;20048;-27
2022/06/24 05:15:34;;;;;;;6.22;4.78;;;21.00;99.90;;;;;;5050868;28;20102;-27
2022/06/24 05:18:00;;;;;;;6.22;4.45;;;21.00;99.90;;;;;;5032932;28;20170;-27
2022/06/24 05:20:26;;;;;;;5.00;4.50;;;21.00;99.90;;;;;;5050954;28;20124;-27
2022/06/24 05:22:51;;;;;;;5.60;4.88;;;20.90;99.90;;;;;;5033076;28;20036;-27
2022/06/24 05:25:17;;;;;;;6.53;5.28;;;20.80;99.90;;;;;;5048205;28;20069;-27
2022/06/24 05:27:43;;;;;;;6.05;4.70;;;20.80;99.90;;;;;;5042911;28;20085;-26
2022/06/24 05:30:10;;;;;;;5.93;4.90;;;20.80;99.90;;;;;;5030743;28;20045;-26
2022/06/24 05:32:36;;;;;;;7.82;6.55;;;20.80;99.90;;;;;;5042710;28;20108;-26
2022/06/24 05:35:01;;;;;;;7.60;6.07;;;20.70;99.90;;;;;;5041285;28;20176;-26
2022/06/24 05:37:27;;;;;;;8.30;6.30;;;20.60;99.90;;;;;;5043844;28;20238;-26
2022/06/24 05:39:54;;;;;;;7.20;6.28;;;20.60;99.90;;;;;;5039812;28;20451;-26
2022/06/24 05:42:20;;;;;;;6.55;5.82;;;20.50;99.90;;;;;;5035947;28;20041;-26
2022/06/24 05:44:45;;;;;;;7.40;5.88;;;20.50;99.90;;;;;;5037602;28;20071;-26
2022/06/24 05:47:11;;;;;;;8.65;6.88;;;20.50;99.90;;;;;;5047977;28;20040;-26
2022/06/24 05:49:37;;;;;;;7.40;6.57;;;20.50;99.90;;;;;;5051325;28;20124;-26
2022/06/24 05:52:03;;;;;;;7.75;6.25;;;20.50;99.90;;;;;;5051670;28;20052;-26
2022/06/24 05:57:13;;;;;;;7.45;6.70;;;20.60;99.90;;;;;;5051639;28;20041;-26
2022/06/24 05:59:39;;;;;;;7.53;6.82;;;20.60;99.90;;;;;;5039821;28;20445;-26
2022/06/24 06:02:06;;;;;;;8.18;7.40;;;20.60;99.90;;;;;;5050730;28;20083;-26
2022/06/24 06:04:33;;;;;;;8.23;7.30;;;20.70;99.90;;;;;;5047296;28;20043;-26
2022/06/24 06:06:58;;;;;;;9.20;7.75;;;20.70;99.90;;;;;;5054685;28;20076;-26
2022/06/24 06:09:24;;;;;;;7.38;6.78;;;20.70;99.90;;;;;;5054521;28;20072;-28
2022/06/24 06:11:50;;;;;;;7.30;6.60;;;20.70;99.90;;;;;;5050891;28;20116;-29
2022/06/24 06:14:16;;;;;;;11.27;7.00;;;20.80;99.90;;;;;;5051509;28;20493;-29
2022/06/24 06:16:41;;;;;;;9.25;6.18;;;20.80;99.90;;;;;;5041528;28;20069;-29
2022/06/24 06:19:10;;;;;;;7.45;6.57;;;20.80;99.90;;;;;;5045233;28;20041;-29
2022/06/24 06:21:36;;;;;;;8.25;6.88;;;20.90;99.90;;;;;;5047399;28;20395;-29
2022/06/24 06:24:01;;;;;;;7.63;6.93;;;20.90;99.90;;;;;;5051684;28;20107;-30
2022/06/24 06:26:29;;;;;;;7.75;7.05;;;20.90;99.90;;;;;;5048463;28;20108;-30
2022/06/24 06:28:54;;;;;;;7.93;7.13;;;20.90;99.90;;;;;;5052376;28;20041;-30
2022/06/24 06:31:20;;;;;;;7.32;6.60;;;20.90;99.90;;;;;;5052079;28;20611;-30
2022/06/24 06:33:46;;;;;;;8.50;7.68;;;20.90;99.90;;;;;;5047896;28;20040;-30
2022/06/24 06:36:13;;;;;;;10.85;8.13;;;20.80;99.90;;;;;;5053336;28;20631;-30
2022/06/24 06:38:40;;;;;;;10.10;7.18;;;20.80;99.90;;;;;;5047772;28;20099;-30
2022/06/24 06:41:05;;;;;;;9.18;8.25;;;20.80;99.90;;;;;;5050466;28;20542;-30
2022/06/24 06:43:31;;;;;;;8.63;7.82;;;20.80;99.90;;;;;;5029916;28;20072;-30
2022/06/24 06:45:57;;;;;;;8.32;7.53;;;20.80;99.90;;;;;;5051022;28;20036;-30
2022/06/24 06:48:23;;;;;;;7.55;6.85;;;20.80;99.90;;;;;;5046995;28;20049;-30
2022/06/24 06:50:57;;;;;;;8.05;7.35;;;20.80;99.90;;;;;;5053688;28;20110;-30
2022/06/24 06:53:26;;;;;;;9.32;8.35;;;20.80;99.90;;;;;;5052140;28;20097;-30
2022/06/24 06:55:52;;;;;;;7.63;6.93;;;20.80;99.90;;;;;;5046196;28;20481;-30
2022/06/24 06:58:19;;;;;;;8.23;7.43;;;20.80;99.90;;;;;;5041579;28;20033;-30
2022/06/24 07:00:45;;;;;;;9.18;8.00;;;20.80;99.90;;;;;;5046314;28;20102;-27
2022/06/24 07:03:11;;;;;;;9.20;7.82;;;20.80;99.90;;;;;;5049772;28;20037;-30
2022/06/24 07:05:37;;;;;;;8.80;8.00;;;20.90;99.90;;;;;;5048741;28;20033;-30
2022/06/24 07:08:04;;;;;;;7.57;6.88;;;20.90;99.90;;;;;;5039944;28;20073;-30
2022/06/24 07:10:30;;;;;;;7.93;7.13;;;20.90;99.90;;;;;;5039537;28;20041;-30
2022/06/24 07:12:56;;;;;;;8.50;7.40;;;21.00;99.90;;;;;;5028175;28;20056;-30
2022/06/24 07:15:21;;;;;;;9.75;8.85;;;21.00;99.90;;;;;;5043113;28;20064;-30
2022/06/24 07:17:47;;;;;;;8.75;7.95;;;21.00;99.90;;;;;;5049861;28;20085;-30
2022/06/24 07:20:13;;;;;;;7.85;7.25;;;21.10;99.90;;;;;;5042621;28;20033;-30
2022/06/24 07:22:42;;;;;;;8.93;8.13;;;21.10;99.90;;;;;;5045898;28;20044;-30
2022/06/24 07:25:08;;;;;;;9.45;8.55;;;21.10;99.90;;;;;;5039668;28;20464;-30
2022/06/24 07:27:34;;;;;;;9.43;8.48;;;21.10;99.90;;;;;;5024662;28;20044;-30
2022/06/24 07:30:03;;;;;;;10.63;9.65;;;21.10;99.90;;;;;;5046298;28;20037;-30
2022/06/24 07:32:29;;;;;;;11.15;10.02;;;21.10;99.90;;;;;;5045283;28;20029;-30
2022/06/24 07:34:54;;;;;;;11.00;9.90;;;21.10;99.90;;;;;;5049843;28;20040;-30
2022/06/24 07:37:20;;;;;;;10.07;9.18;;;21.10;99.90;;;;;;5044880;28;20041;-30
2022/06/24 07:39:46;;;;;;;11.27;10.38;;;21.10;99.90;;;;;;5050388;28;20116;-30
2022/06/24 07:42:12;;;;;;;9.95;9.05;;;21.10;99.90;;;;;;5047713;28;20065;-30
2022/06/24 07:44:42;;;;;;;11.13;10.13;;;21.00;99.90;;;;;;5044966;28;20102;-31
2022/06/24 07:47:09;;;;;;;11.63;10.40;;;21.00;99.90;;;;;;5051313;28;20068;-30
2022/06/24 07:49:35;;;;;;;12.20;11.05;;;21.00;99.90;;;;;;5027220;28;20048;-30
2022/06/24 07:52:00;;;;;;;14.20;12.90;;;21.00;99.90;;;;;;5048796;28;20029;-30
2022/06/24 07:54:26;;;;;;;12.52;11.23;;;20.90;99.90;;;;;;5044418;28;20664;-30
2022/06/24 07:56:58;;;;;;;12.65;11.48;;;20.90;99.90;;;;;;5049293;28;20063;-30
2022/06/24 07:59:29;;;;;;;14.15;12.80;;;20.90;99.90;;;;;;5027997;28;20517;-30
2022/06/24 08:01:56;;;;;;;13.77;12.52;;;20.80;99.90;;;;;;5047892;28;20511;-30
2022/06/24 08:04:27;;;;;;;15.23;13.93;;;20.80;99.90;;;;;;5042330;28;20037;-30
2022/06/24 08:06:53;;;;;;;14.15;12.75;;;20.80;99.90;;;;;;5050763;28;20047;-30
2022/06/24 08:09:25;;;;;;;12.70;11.63;;;20.90;99.90;;;;;;5041885;28;20393;-30
2022/06/24 08:11:52;;;;;;;14.10;12.82;;;20.90;99.90;;;;;;5046398;28;20040;-30
2022/06/24 08:14:19;;;;;;;14.30;12.90;;;20.90;99.90;;;;;;5050533;28;20520;-30
2022/06/24 08:16:45;;;;;;;15.38;13.85;;;21.00;99.90;;;;;;5050659;28;20028;-30
2022/06/24 08:19:11;;;;;;;15.80;14.27;;;20.90;99.90;;;;;;5005582;28;20131;-30
2022/06/24 08:21:37;;;;;;;15.05;13.75;;;20.90;99.90;;;;;;5031857;28;20443;-30
2022/06/24 08:24:04;;;;;;;13.95;12.63;;;21.00;99.90;;;;;;5039570;28;20040;-31
2022/06/24 08:26:30;;;;;;;15.10;13.80;;;21.00;99.90;;;;;;5045172;28;20404;-30
2022/06/24 08:28:56;;;;;;;14.70;13.35;;;21.00;99.90;;;;;;5027094;28;20111;-30
2022/06/24 08:31:23;;;;;;;13.90;12.70;;;21.10;99.90;;;;;;5042795;28;20044;-30
2022/06/24 08:33:49;;;;;;;14.60;13.30;;;21.10;99.90;;;;;;5025812;28;20064;-30
2022/06/24 08:36:15;;;;;;;14.68;13.35;;;21.20;99.90;;;;;;5038257;28;20037;-30
2022/06/24 08:38:41;;;;;;;15.68;14.18;;;21.20;99.90;;;;;;5045389;28;20484;-30
2022/06/24 08:41:07;;;;;;;16.75;15.15;;;21.20;99.90;;;;;;5021547;28;20034;-30
2022/06/24 08:43:35;;;;;;;15.40;14.05;;;21.20;99.90;;;;;;5044892;28;20033;-30
2022/06/24 08:46:03;;;;;;;18.02;16.23;;;21.10;99.90;;;;;;5044279;28;20033;-30
2022/06/24 08:48:33;;;;;;;17.27;15.73;;;21.10;99.90;;;;;;5044754;28;20041;-30
2022/06/24 08:51:00;;;;;;;17.20;15.60;;;21.00;99.90;;;;;;5040956;28;20037;-30
2022/06/24 08:53:28;;;;;;;16.83;15.30;;;20.90;99.90;;;;;;5039351;28;20042;-30
2022/06/24 08:55:55;;;;;;;16.73;15.25;;;20.90;99.90;;;;;;5037828;28;20066;-30
2022/06/24 08:58:21;;;;;;;16.95;15.35;;;20.80;99.90;;;;;;5036757;28;20042;-30
2022/06/24 09:00:47;;;;;;;15.60;14.38;;;20.80;99.90;;;;;;5037937;28;20171;-30
2022/06/24 09:03:13;;;;;;;16.80;15.40;;;20.90;99.90;;;;;;5041373;28;20072;-30
2022/06/24 09:05:40;;;;;;;18.98;17.10;;;20.90;99.90;;;;;;5037187;28;20037;-30
2022/06/24 09:08:11;;;;;;;19.08;17.17;;;20.90;99.90;;;;;;5040694;28;20033;-30
2022/06/24 09:10:40;;;;;;;17.27;15.70;;;20.90;99.90;;;;;;5026798;28;20045;-30
2022/06/24 09:13:06;;;;;;;17.88;16.25;;;20.90;99.90;;;;;;5040510;28;20377;-30
2022/06/24 09:15:32;;;;;;;17.30;15.77;;;20.90;99.90;;;;;;5042610;28;20527;-30
2022/06/24 09:18:01;;;;;;;16.60;15.07;;;20.90;99.90;;;;;;5046189;28;20044;-30
2022/06/24 09:20:29;;;;;;;16.65;15.35;;;20.90;99.90;;;;;;5047073;28;20568;-30
2022/06/24 09:23:03;;;;;;;15.88;14.38;;;20.90;99.90;;;;;;5050431;28;20453;-29
2022/06/24 09:25:39;;;;;;;;;;;20.80;99.90;;;;;;5036658;28;20044;-30
2022/06/24 09:28:06;;;;;;;14.60;13.23;;;20.70;99.90;;;;;;5048773;28;19917;-29
2022/06/24 09:30:36;;;;;;;9.15;8.35;;;20.50;99.90;;;;;;5008893;28;20091;-29
2022/06/24 09:33:02;;;;;;;6.18;5.57;;;20.40;99.90;;;;;;5052618;28;20037;-29
2022/06/24 09:35:28;;;;;;;4.70;4.25;;;20.30;99.90;;;;;;5047395;28;20481;-29
2022/06/24 09:37:55;;;;;;;7.75;3.97;;;20.10;99.90;;;;;;5049894;28;20041;-29
2022/06/24 09:40:29;;;;;;;4.10;3.28;;;20.00;99.90;;;;;;5043404;28;20034;-29
2022/06/24 09:43:00;;;;;;;3.33;2.40;;;19.90;99.90;;;;;;5049327;28;20072;-29
2022/06/24 09:45:46;;;;;;;3.38;3.05;;;19.90;99.90;;;;;;5046867;28;20477;-29
2022/06/24 09:48:26;;;;;;;3.78;3.40;;;19.80;99.90;;;;;;5043428;28;20037;-29
2022/06/24 09:50:57;;;;;;;4.15;3.60;;;19.60;99.90;;;;;;5045727;28;20040;-29
2022/06/24 09:53:32;;;;;;;4.97;4.47;;;19.50;99.90;;;;;;5047978;28;20064;-29
2022/06/24 09:55:59;;;;;;;4.20;3.80;;;19.40;99.90;;;;;;5044563;28;20411;-29
2022/06/24 09:58:25;;;;;;;4.15;3.75;;;19.40;99.90;;;;;;5042756;28;20302;-29
2022/06/24 10:00:51;;;;;;;3.95;3.63;;;19.30;99.90;;;;;;5038214;28;21701;-29
2022/06/24 10:03:18;;;;;;;4.63;3.28;;;19.20;99.90;;;;;;5033146;28;20037;-29
2022/06/24 10:05:51;;;;;;;4.30;3.35;;;19.20;99.90;;;;;;5051147;28;20400;-29
2022/06/24 10:08:22;;;;;;;4.38;3.97;;;19.10;99.90;;;;;;5043411;28;20508;-29
2022/06/24 10:10:51;;;;;;;4.72;3.65;;;19.10;99.90;;;;;;5034066;28;20044;-29
2022/06/24 10:13:24;;;;;;;6.47;4.32;;;19.10;99.90;;;;;;5046589;28;20041;-29
2022/06/24 10:15:52;;;;;;;4.82;4.30;;;19.10;99.90;;;;;;5043836;28;20041;-29
2022/06/24 10:18:19;;;;;;;4.78;4.10;;;19.10;99.90;;;;;;5041477;28;20049;-29
2022/06/24 10:20:50;;;;;;;19.27;5.97;;;19.10;99.90;;;;;;5049688;28;20033;-29
2022/06/24 10:23:38;;;;;;;5.75;5.00;;;19.20;99.90;;;;;;5042313;28;20032;-29
2022/06/24 10:26:16;;;;;;;5.65;5.10;;;19.20;99.90;;;;;;5046579;28;20403;-29
2022/06/24 10:29:00;;;;;;;16.40;5.57;;;19.30;99.90;;;;;;5039208;28;20047;-29
2022/06/24 10:31:51;;;;;;;17.70;5.63;;;19.30;99.90;;;;;;5043197;28;20496;-29
2022/06/24 10:34:26;;;;;;;7.07;4.90;;;19.30;99.90;;;;;;5042788;28;20420;-29
2022/06/24 10:37:23;;;;;;;6.85;4.75;;;19.30;99.90;;;;;;5044527;28;20087;-29
2022/06/24 10:39:54;;;;;;;6.57;4.35;;;19.30;99.90;;;;;;5038624;28;20068;-29
2022/06/24 10:42:22;;;;;;;4.90;4.38;;;19.40;99.90;;;;;;5050618;28;20036;-29
2022/06/24 10:44:57;;;;;;;4.30;3.88;;;19.40;99.90;;;;;;5043183;28;20040;-29
2022/06/24 10:47:27;;;;;;;4.90;4.20;;;19.40;99.90;;;;;;5030313;28;20037;-29
2022/06/24 10:49:55;;;;;;;6.00;4.10;;;19.40;99.90;;;;;;5034960;28;20052;-29
2022/06/24 10:52:45;;;;;;;5.25;4.20;;;19.40;99.90;;;;;;5042411;28;20045;-29
2022/06/24 10:55:31;;;;;;;4.22;3.90;;;19.40;99.90;;;;;;5046767;28;20526;-29
2022/06/24 10:58:11;;;;;;;4.53;3.70;;;19.50;99.90;;;;;;5027025;28;20052;-29
2022/06/24 11:00:39;;;;;;;4.18;3.72;;;19.60;99.90;;;;;;5045048;28;20412;-29
2022/06/24 11:03:05;;;;;;;3.75;3.45;;;19.70;99.90;;;;;;5045077;28;20100;-29
2022/06/24 11:05:37;;;;;;;4.38;3.83;;;19.70;99.90;;;;;;5046342;28;20449;-29
2022/06/24 11:08:33;;;;;;;4.53;4.03;;;19.70;99.90;;;;;;5040961;28;20377;-29
2022/06/24 11:10:59;;;;;;;4.18;3.53;;;19.80;99.90;;;;;;5042760;28;20056;-30
2022/06/24 11:13:25;;;;;;;5.20;3.95;;;20.20;99.90;;;;;;5044386;28;20381;-30
2022/06/24 11:15:58;;;;;;;4.35;3.83;;;20.50;99.90;;;;;;5044117;28;20045;-30
2022/06/24 11:18:24;;;;;;;3.75;3.47;;;20.90;99.90;;;;;;5027859;28;20048;-30
2022/06/24 11:21:02;;;;;;;4.75;3.90;;;21.20;99.90;;;;;;5044808;28;20415;-30
2022/06/24 11:23:30;;;;;;;4.70;3.88;;;21.50;99.90;;;;;;5049177;28;20025;-30
2022/06/24 11:26:17;;;;;;;5.63;4.10;;;21.70;99.90;;;;;;5041353;28;20445;-30
2022/06/24 11:28:52;;;;;;;4.95;4.55;;;22.00;99.90;;;;;;5038548;28;20115;-30
2022/06/24 11:31:22;;;;;;;5.30;4.70;;;22.20;99.90;;;;;;5048186;28;20048;-30
2022/06/24 11:33:58;;;;;;;4.80;4.40;;;22.10;99.90;;;;;;5051893;28;20041;-30
2022/06/24 11:36:26;;;;;;;5.38;4.70;;;22.10;99.90;;;;;;5050220;28;20043;-30
2022/06/24 11:39:05;;;;;;;5.45;4.95;;;22.00;99.90;;;;;;5042118;28;20060;-30
2022/06/24 11:41:36;;;;;;;5.18;4.68;;;21.90;99.90;;;;;;5021784;28;20039;-30
2022/06/24 11:44:03;;;;;;;5.75;5.25;;;21.80;99.90;;;;;;5047522;28;20076;-30
2022/06/24 11:46:29;;;;;;;5.55;5.05;;;21.90;99.90;;;;;;5028520;28;20407;-30
2022/06/24 11:49:11;;;;;;;6.82;5.90;;;22.00;99.90;;;;;;5040760;28;20112;-31
2022/06/24 11:51:38;;;;;;;5.53;5.00;;;22.00;99.90;;;;;;5040103;28;20037;-31
2022/06/24 11:54:06;;;;;;;5.80;5.20;;;22.10;99.90;;;;;;5048284;28;20033;-30
2022/06/24 11:56:38;;;;;;;6.20;5.60;;;22.20;99.90;;;;;;5029752;28;20119;-30
2022/06/24 11:59:05;;;;;;;6.57;5.90;;;22.20;99.90;;;;;;5032033;28;20045;-31
2022/06/24 12:01:32;;;;;;;6.10;5.63;;;22.20;99.90;;;;;;5043746;28;20124;-31
2022/06/24 12:04:06;;;;;;;6.22;5.63;;;22.20;99.90;;;;;;5029956;28;20033;-31
2022/06/24 12:06:33;;;;;;;6.75;6.15;;;22.10;99.90;;;;;;5045744;28;20045;-31
2022/06/24 12:08:59;;;;;;;6.78;6.18;;;22.10;99.90;;;;;;5043281;28;20076;-30
2022/06/24 12:11:25;;;;;;;6.40;5.80;;;22.20;99.90;;;;;;5043849;28;20156;-31
2022/06/24 12:13:58;;;;;;;6.40;5.90;;;22.20;99.90;;;;;;5043196;28;20068;-31
2022/06/24 12:16:25;;;;;;;7.07;6.55;;;22.30;99.90;;;;;;5050568;28;20496;-31
2022/06/24 12:18:51;;;;;;;6.97;6.25;;;22.30;99.90;;;;;;5043989;28;20079;-31
2022/06/24 12:21:25;;;;;;;7.18;6.57;;;22.30;99.90;;;;;;5048417;28;20461;-31
2022/06/24 12:23:52;;;;;;;6.68;6.10;;;22.30;99.90;;;;;;5046032;28;20060;-31
2022/06/24 12:26:25;;;;;;;8.07;7.28;;;22.40;99.90;;;;;;5048775;28;20127;-31
2022/06/24 12:29:00;;;;;;;7.20;6.60;;;22.50;99.90;;;;;;5041068;28;20045;-31
2022/06/24 12:31:27;;;;;;;7.70;6.90;;;22.40;99.90;;;;;;5046049;28;20037;-31
2022/06/24 12:33:56;;;;;;;7.13;6.43;;;22.50;99.90;;;;;;5045237;28;20496;-31
2022/06/24 12:36:32;;;;;;;7.32;6.65;;;22.60;99.90;;;;;;5048024;28;20092;-31
2022/06/24 12:39:00;;;;;;;7.90;7.20;;;22.80;99.90;;;;;;5021599;28;20106;-31
2022/06/24 12:41:26;;;;;;;8.02;7.32;;;23.10;99.90;;;;;;5048086;28;20496;-31
2022/06/24 12:43:54;;;;;;;7.63;7.03;;;23.20;99.90;;;;;;5049753;28;20029;-31
2022/06/24 12:46:26;;;;;;;8.07;7.38;;;23.40;99.90;;;;;;5049390;28;20447;-31
2022/06/24 12:51:49;;;;;;;9.18;8.38;;;23.80;99.90;;;;;;5046139;28;20041;-32
2022/06/24 12:54:15;;;;;;;8.45;7.75;;;24.10;99.90;;;;;;5025206;28;20396;-29
2022/06/24 12:56:42;;;;;;;9.18;8.27;;;24.30;99.90;;;;;;5040686;28;20488;-28
2022/06/24 12:59:08;;;;;;;8.35;7.75;;;24.50;99.90;;;;;;5051554;28;20103;-26
2022/06/24 13:01:42;;;;;;;8.45;7.72;;;24.80;99.90;;;;;;5050939;28;20090;-26